sensor_id;sensor_type;location;lat;lon;timestamp;P1;durP1;ratioP1;P2;durP2;ratioP2
13981;SDS011;7065;50.880;5.502;2022-10-04T00:01:43;9.75;;;8.13;;
13981;SDS011;7065;50.880;5.502;2022-10-04T00:06:54;8.80;;;7.88;;
13981;SDS011;7065;50.880;5.502;2022-10-04T00:09:23;8.65;;;7.65;;
13981;SDS011;7065;50.880;5.502;2022-10-04T00:11:54;13.65;;;8.75;;
13981;SDS011;7065;50.880;5.502;2022-10-04T00:14:27;11.43;;;8.75;;
13981;SDS011;7065;50.880;5.502;2022-10-04T00:16:57;11.27;;;8.43;;
13981;SDS011;7065;50.880;5.502;2022-10-04T00:19:44;10.90;;;8.68;;
13981;SDS011;7065;50.880;5.502;2022-10-04T00:22:16;11.40;;;8.25;;
13981;SDS011;7065;50.880;5.502;2022-10-04T00:27:38;8.80;;;7.72;;
13981;SDS011;7065;50.880;5.502;2022-10-04T00:30:33;11.45;;;7.78;;
13981;SDS011;7065;50.880;5.502;2022-10-04T00:33:01;11.13;;;7.65;;
13981;SDS011;7065;50.880;5.502;2022-10-04T00:37:57;11.35;;;7.88;;
13981;SDS011;7065;50.880;5.502;2022-10-04T00:40:25;10.40;;;7.20;;
13981;SDS011;7065;50.880;5.502;2022-10-04T00:43:03;11.77;;;7.50;;
13981;SDS011;7065;50.880;5.502;2022-10-04T00:45:37;10.95;;;7.93;;
13981;SDS011;7065;50.880;5.502;2022-10-04T00:48:13;11.93;;;7.40;;
13981;SDS011;7065;50.880;5.502;2022-10-04T00:50:53;10.93;;;7.68;;
13981;SDS011;7065;50.880;5.502;2022-10-04T00:53:41;8.30;;;7.25;;
13981;SDS011;7065;50.880;5.502;2022-10-04T00:56:22;11.10;;;7.47;;
13981;SDS011;7065;50.880;5.502;2022-10-04T00:59:20;9.02;;;7.47;;
13981;SDS011;7065;50.880;5.502;2022-10-04T01:02:00;9.90;;;6.82;;
13981;SDS011;7065;50.880;5.502;2022-10-04T01:04:37;9.90;;;7.43;;
13981;SDS011;7065;50.880;5.502;2022-10-04T01:07:07;7.75;;;6.88;;
13981;SDS011;7065;50.880;5.502;2022-10-04T01:09:36;11.13;;;7.40;;
13981;SDS011;7065;50.880;5.502;2022-10-04T01:12:13;7.75;;;6.40;;
13981;SDS011;7065;50.880;5.502;2022-10-04T01:15:13;9.88;;;7.65;;
13981;SDS011;7065;50.880;5.502;2022-10-04T01:20:35;7.70;;;6.90;;
13981;SDS011;7065;50.880;5.502;2022-10-04T01:23:03;7.85;;;6.30;;
13981;SDS011;7065;50.880;5.502;2022-10-04T01:25:42;9.60;;;6.55;;
13981;SDS011;7065;50.880;5.502;2022-10-04T01:28:09;10.07;;;7.35;;
13981;SDS011;7065;50.880;5.502;2022-10-04T01:30:36;10.63;;;6.50;;
13981;SDS011;7065;50.880;5.502;2022-10-04T01:33:02;9.25;;;6.80;;
13981;SDS011;7065;50.880;5.502;2022-10-04T01:35:30;9.60;;;7.22;;
13981;SDS011;7065;50.880;5.502;2022-10-04T01:37:59;7.70;;;6.55;;
13981;SDS011;7065;50.880;5.502;2022-10-04T01:40:31;7.53;;;6.50;;
13981;SDS011;7065;50.880;5.502;2022-10-04T01:43:07;7.25;;;6.55;;
13981;SDS011;7065;50.880;5.502;2022-10-04T01:45:37;7.15;;;6.45;;
13981;SDS011;7065;50.880;5.502;2022-10-04T01:48:09;8.95;;;7.20;;
13981;SDS011;7065;50.880;5.502;2022-10-04T01:50:42;13.63;;;7.60;;
13981;SDS011;7065;50.880;5.502;2022-10-04T01:55:52;10.88;;;7.20;;
13981;SDS011;7065;50.880;5.502;2022-10-04T01:58:27;14.95;;;8.38;;
13981;SDS011;7065;50.880;5.502;2022-10-04T02:01:03;11.10;;;8.20;;
13981;SDS011;7065;50.880;5.502;2022-10-04T02:03:43;12.20;;;8.70;;
13981;SDS011;7065;50.880;5.502;2022-10-04T02:06:16;9.20;;;7.70;;
13981;SDS011;7065;50.880;5.502;2022-10-04T02:08:46;9.73;;;7.45;;
13981;SDS011;7065;50.880;5.502;2022-10-04T02:11:17;9.50;;;7.47;;
13981;SDS011;7065;50.880;5.502;2022-10-04T02:13:45;10.88;;;7.70;;
13981;SDS011;7065;50.880;5.502;2022-10-04T02:16:16;7.28;;;6.57;;
13981;SDS011;7065;50.880;5.502;2022-10-04T02:18:44;8.43;;;7.15;;
13981;SDS011;7065;50.880;5.502;2022-10-04T02:21:10;12.85;;;8.13;;
13981;SDS011;7065;50.880;5.502;2022-10-04T02:23:37;7.78;;;6.85;;
13981;SDS011;7065;50.880;5.502;2022-10-04T02:26:05;10.68;;;7.40;;
13981;SDS011;7065;50.880;5.502;2022-10-04T02:28:32;10.75;;;8.10;;
13981;SDS011;7065;50.880;5.502;2022-10-04T02:30:59;13.32;;;8.38;;
13981;SDS011;7065;50.880;5.502;2022-10-04T02:33:45;10.15;;;7.93;;
13981;SDS011;7065;50.880;5.502;2022-10-04T02:36:14;9.90;;;7.55;;
13981;SDS011;7065;50.880;5.502;2022-10-04T02:38:42;10.60;;;7.97;;
13981;SDS011;7065;50.880;5.502;2022-10-04T02:41:20;12.82;;;7.55;;
13981;SDS011;7065;50.880;5.502;2022-10-04T02:46:24;11.05;;;7.53;;
13981;SDS011;7065;50.880;5.502;2022-10-04T02:48:58;8.77;;;6.57;;
13981;SDS011;7065;50.880;5.502;2022-10-04T02:54:02;8.70;;;7.13;;
13981;SDS011;7065;50.880;5.502;2022-10-04T02:56:38;7.50;;;6.50;;
13981;SDS011;7065;50.880;5.502;2022-10-04T02:59:04;10.05;;;7.03;;
13981;SDS011;7065;50.880;5.502;2022-10-04T03:04:26;7.80;;;6.57;;
13981;SDS011;7065;50.880;5.502;2022-10-04T03:06:54;6.80;;;6.20;;
13981;SDS011;7065;50.880;5.502;2022-10-04T03:09:23;7.78;;;6.95;;
13981;SDS011;7065;50.880;5.502;2022-10-04T03:11:49;7.78;;;6.68;;
13981;SDS011;7065;50.880;5.502;2022-10-04T03:14:17;8.18;;;6.45;;
13981;SDS011;7065;50.880;5.502;2022-10-04T03:16:47;6.85;;;5.63;;
13981;SDS011;7065;50.880;5.502;2022-10-04T03:19:14;5.80;;;4.78;;
13981;SDS011;7065;50.880;5.502;2022-10-04T03:21:42;5.20;;;4.22;;
13981;SDS011;7065;50.880;5.502;2022-10-04T03:24:11;5.90;;;4.18;;
13981;SDS011;7065;50.880;5.502;2022-10-04T03:26:45;5.40;;;4.90;;
13981;SDS011;7065;50.880;5.502;2022-10-04T03:29:14;5.38;;;4.88;;
13981;SDS011;7065;50.880;5.502;2022-10-04T03:31:45;6.32;;;5.45;;
13981;SDS011;7065;50.880;5.502;2022-10-04T03:34:14;7.30;;;5.88;;
13981;SDS011;7065;50.880;5.502;2022-10-04T03:36:42;9.95;;;5.53;;
13981;SDS011;7065;50.880;5.502;2022-10-04T03:39:10;6.80;;;5.47;;
13981;SDS011;7065;50.880;5.502;2022-10-04T03:41:41;8.23;;;6.22;;
13981;SDS011;7065;50.880;5.502;2022-10-04T03:44:15;7.32;;;5.80;;
13981;SDS011;7065;50.880;5.502;2022-10-04T03:46:42;7.50;;;5.55;;
13981;SDS011;7065;50.880;5.502;2022-10-04T03:49:09;7.78;;;5.65;;
13981;SDS011;7065;50.880;5.502;2022-10-04T03:51:37;9.25;;;6.78;;
13981;SDS011;7065;50.880;5.502;2022-10-04T03:54:10;10.32;;;6.75;;
13981;SDS011;7065;50.880;5.502;2022-10-04T03:56:42;7.57;;;6.30;;
13981;SDS011;7065;50.880;5.502;2022-10-04T03:59:09;9.18;;;6.32;;
13981;SDS011;7065;50.880;5.502;2022-10-04T04:04:21;8.45;;;6.07;;
13981;SDS011;7065;50.880;5.502;2022-10-04T04:06:58;7.47;;;6.40;;
13981;SDS011;7065;50.880;5.502;2022-10-04T04:09:55;7.78;;;5.88;;
13981;SDS011;7065;50.880;5.502;2022-10-04T04:12:42;6.47;;;5.70;;
13981;SDS011;7065;50.880;5.502;2022-10-04T04:15:13;7.90;;;6.07;;
13981;SDS011;7065;50.880;5.502;2022-10-04T04:17:41;5.53;;;5.00;;
13981;SDS011;7065;50.880;5.502;2022-10-04T04:20:21;7.07;;;5.45;;
13981;SDS011;7065;50.880;5.502;2022-10-04T04:22:54;7.60;;;5.15;;
13981;SDS011;7065;50.880;5.502;2022-10-04T04:25:48;9.38;;;5.90;;
13981;SDS011;7065;50.880;5.502;2022-10-04T04:30:48;5.95;;;5.15;;
13981;SDS011;7065;50.880;5.502;2022-10-04T04:33:39;9.57;;;6.43;;
13981;SDS011;7065;50.880;5.502;2022-10-04T04:36:13;7.95;;;6.70;;
13981;SDS011;7065;50.880;5.502;2022-10-04T04:38:41;7.90;;;6.78;;
13981;SDS011;7065;50.880;5.502;2022-10-04T04:41:27;11.32;;;7.47;;
13981;SDS011;7065;50.880;5.502;2022-10-04T04:43:55;11.50;;;7.68;;
13981;SDS011;7065;50.880;5.502;2022-10-04T04:46:21;10.90;;;7.57;;
13981;SDS011;7065;50.880;5.502;2022-10-04T04:48:48;11.65;;;7.13;;
13981;SDS011;7065;50.880;5.502;2022-10-04T04:51:25;8.88;;;6.80;;
13981;SDS011;7065;50.880;5.502;2022-10-04T04:53:51;11.15;;;6.53;;
13981;SDS011;7065;50.880;5.502;2022-10-04T04:56:20;8.43;;;6.22;;
13981;SDS011;7065;50.880;5.502;2022-10-04T04:58:50;8.57;;;6.70;;
13981;SDS011;7065;50.880;5.502;2022-10-04T05:01:20;10.80;;;6.85;;
13981;SDS011;7065;50.880;5.502;2022-10-04T05:04:03;8.18;;;6.63;;
13981;SDS011;7065;50.880;5.502;2022-10-04T05:06:29;9.98;;;6.78;;
13981;SDS011;7065;50.880;5.502;2022-10-04T05:08:56;8.38;;;6.57;;
13981;SDS011;7065;50.880;5.502;2022-10-04T05:11:24;9.18;;;7.07;;
13981;SDS011;7065;50.880;5.502;2022-10-04T05:13:57;11.75;;;7.13;;
13981;SDS011;7065;50.880;5.502;2022-10-04T05:16:39;10.23;;;7.20;;
13981;SDS011;7065;50.880;5.502;2022-10-04T05:22:00;13.45;;;7.60;;
13981;SDS011;7065;50.880;5.502;2022-10-04T05:24:32;10.77;;;7.97;;
13981;SDS011;7065;50.880;5.502;2022-10-04T05:29:59;13.13;;;8.40;;
13981;SDS011;7065;50.880;5.502;2022-10-04T05:32:29;10.15;;;8.68;;
13981;SDS011;7065;50.880;5.502;2022-10-04T05:35:14;10.85;;;8.00;;
13981;SDS011;7065;50.880;5.502;2022-10-04T05:40:40;15.00;;;9.00;;
13981;SDS011;7065;50.880;5.502;2022-10-04T05:43:20;14.27;;;8.45;;
13981;SDS011;7065;50.880;5.502;2022-10-04T05:45:46;16.50;;;9.07;;
13981;SDS011;7065;50.880;5.502;2022-10-04T05:48:33;15.68;;;8.90;;
13981;SDS011;7065;50.880;5.502;2022-10-04T05:51:00;13.40;;;9.82;;
13981;SDS011;7065;50.880;5.502;2022-10-04T05:53:29;11.75;;;7.93;;
13981;SDS011;7065;50.880;5.502;2022-10-04T06:01:29;13.45;;;8.32;;
13981;SDS011;7065;50.880;5.502;2022-10-04T06:07:13;12.18;;;8.90;;
13981;SDS011;7065;50.880;5.502;2022-10-04T06:09:52;12.65;;;8.95;;
13981;SDS011;7065;50.880;5.502;2022-10-04T06:14:59;12.75;;;8.88;;
13981;SDS011;7065;50.880;5.502;2022-10-04T06:23:11;11.80;;;8.27;;
13981;SDS011;7065;50.880;5.502;2022-10-04T06:28:21;12.02;;;7.80;;
13981;SDS011;7065;50.880;5.502;2022-10-04T06:44:54;12.38;;;7.72;;
13981;SDS011;7065;50.880;5.502;2022-10-04T06:53:25;16.95;;;9.80;;
13981;SDS011;7065;50.880;5.502;2022-10-04T07:01:30;11.75;;;7.82;;
13981;SDS011;7065;50.880;5.502;2022-10-04T07:04:18;14.05;;;8.23;;
13981;SDS011;7065;50.880;5.502;2022-10-04T07:07:15;13.15;;;8.07;;
13981;SDS011;7065;50.880;5.502;2022-10-04T07:13:12;10.68;;;7.97;;
13981;SDS011;7065;50.880;5.502;2022-10-04T07:18:24;9.05;;;6.90;;
13981;SDS011;7065;50.880;5.502;2022-10-04T07:21:02;12.40;;;7.93;;
13981;SDS011;7065;50.880;5.502;2022-10-04T07:23:42;12.05;;;7.20;;
13981;SDS011;7065;50.880;5.502;2022-10-04T07:26:25;11.18;;;7.60;;
13981;SDS011;7065;50.880;5.502;2022-10-04T07:28:51;9.77;;;7.00;;
13981;SDS011;7065;50.880;5.502;2022-10-04T07:31:40;9.98;;;7.43;;
13981;SDS011;7065;50.880;5.502;2022-10-04T07:34:15;7.63;;;6.25;;
13981;SDS011;7065;50.880;5.502;2022-10-04T07:39:32;9.40;;;6.63;;
13981;SDS011;7065;50.880;5.502;2022-10-04T07:45:01;10.90;;;6.70;;
13981;SDS011;7065;50.880;5.502;2022-10-04T07:47:36;10.88;;;6.90;;
13981;SDS011;7065;50.880;5.502;2022-10-04T07:50:22;11.98;;;7.25;;
13981;SDS011;7065;50.880;5.502;2022-10-04T07:55:27;10.25;;;7.07;;
13981;SDS011;7065;50.880;5.502;2022-10-04T08:00:48;12.45;;;7.80;;
13981;SDS011;7065;50.880;5.502;2022-10-04T08:20:31;12.10;;;7.72;;
13981;SDS011;7065;50.880;5.502;2022-10-04T08:25:57;11.73;;;7.80;;
13981;SDS011;7065;50.880;5.502;2022-10-04T08:28:37;13.27;;;7.40;;
13981;SDS011;7065;50.880;5.502;2022-10-04T08:34:32;8.73;;;6.65;;
13981;SDS011;7065;50.880;5.502;2022-10-04T08:37:16;11.30;;;7.28;;
13981;SDS011;7065;50.880;5.502;2022-10-04T08:50:57;7.00;;;6.07;;
13981;SDS011;7065;50.880;5.502;2022-10-04T08:53:43;10.52;;;6.60;;
13981;SDS011;7065;50.880;5.502;2022-10-04T08:59:26;10.13;;;6.63;;
13981;SDS011;7065;50.880;5.502;2022-10-04T09:02:34;9.75;;;6.35;;
13981;SDS011;7065;50.880;5.502;2022-10-04T09:10:42;9.52;;;5.47;;
13981;SDS011;7065;50.880;5.502;2022-10-04T09:16:17;8.60;;;5.38;;
13981;SDS011;7065;50.880;5.502;2022-10-04T09:34:46;8.20;;;5.75;;
13981;SDS011;7065;50.880;5.502;2022-10-04T09:43:09;11.65;;;6.53;;
13981;SDS011;7065;50.880;5.502;2022-10-04T09:48:40;8.65;;;5.45;;
13981;SDS011;7065;50.880;5.502;2022-10-04T09:54:49;8.32;;;5.80;;
13981;SDS011;7065;50.880;5.502;2022-10-04T10:33:32;8.50;;;5.30;;
13981;SDS011;7065;50.880;5.502;2022-10-04T10:45:04;8.32;;;5.18;;
13981;SDS011;7065;50.880;5.502;2022-10-04T10:53:54;9.48;;;6.10;;
13981;SDS011;7065;50.880;5.502;2022-10-04T10:56:41;9.00;;;5.90;;
13981;SDS011;7065;50.880;5.502;2022-10-04T11:02:34;9.05;;;5.63;;
13981;SDS011;7065;50.880;5.502;2022-10-04T11:22:21;8.10;;;5.90;;
13981;SDS011;7065;50.880;5.502;2022-10-04T11:25:25;10.13;;;5.70;;
13981;SDS011;7065;50.880;5.502;2022-10-04T11:28:20;9.32;;;5.65;;
13981;SDS011;7065;50.880;5.502;2022-10-04T11:31:06;7.45;;;4.88;;
13981;SDS011;7065;50.880;5.502;2022-10-04T11:39:39;9.05;;;6.13;;
13981;SDS011;7065;50.880;5.502;2022-10-04T11:42:21;7.55;;;5.35;;
13981;SDS011;7065;50.880;5.502;2022-10-04T11:53:58;7.53;;;5.30;;
13981;SDS011;7065;50.880;5.502;2022-10-04T11:56:57;8.15;;;4.95;;
13981;SDS011;7065;50.880;5.502;2022-10-04T12:14:33;5.55;;;4.25;;
13981;SDS011;7065;50.880;5.502;2022-10-04T12:19:57;5.53;;;4.20;;
13981;SDS011;7065;50.880;5.502;2022-10-04T12:31:05;6.30;;;4.38;;
13981;SDS011;7065;50.880;5.502;2022-10-04T12:36:28;6.95;;;4.40;;
13981;SDS011;7065;50.880;5.502;2022-10-04T12:45:12;4.90;;;3.88;;
13981;SDS011;7065;50.880;5.502;2022-10-04T12:48:02;6.38;;;4.72;;
13981;SDS011;7065;50.880;5.502;2022-10-04T12:56:17;5.15;;;3.90;;
13981;SDS011;7065;50.880;5.502;2022-10-04T13:04:32;5.07;;;4.10;;
13981;SDS011;7065;50.880;5.502;2022-10-04T13:09:46;4.65;;;3.50;;
13981;SDS011;7065;50.880;5.502;2022-10-04T13:12:55;4.65;;;4.07;;
13981;SDS011;7065;50.880;5.502;2022-10-04T13:15:33;4.80;;;3.50;;
13981;SDS011;7065;50.880;5.502;2022-10-04T13:18:19;5.05;;;4.05;;
13981;SDS011;7065;50.880;5.502;2022-10-04T13:39:54;6.80;;;3.47;;
13981;SDS011;7065;50.880;5.502;2022-10-04T14:00:06;8.48;;;3.50;;
13981;SDS011;7065;50.880;5.502;2022-10-04T14:06:01;4.10;;;3.30;;
13981;SDS011;7065;50.880;5.502;2022-10-04T14:45:35;3.90;;;2.70;;
13981;SDS011;7065;50.880;5.502;2022-10-04T14:58:58;3.65;;;2.63;;
13981;SDS011;7065;50.880;5.502;2022-10-04T15:04:29;4.85;;;2.83;;
13981;SDS011;7065;50.880;5.502;2022-10-04T15:07:17;3.75;;;2.92;;
13981;SDS011;7065;50.880;5.502;2022-10-04T15:18:10;5.15;;;3.38;;
13981;SDS011;7065;50.880;5.502;2022-10-04T15:22:55;4.28;;;3.10;;
13981;SDS011;7065;50.880;5.502;2022-10-04T15:25:47;6.82;;;3.25;;
13981;SDS011;7065;50.880;5.502;2022-10-04T15:39:59;4.43;;;3.78;;
13981;SDS011;7065;50.880;5.502;2022-10-04T15:42:28;4.40;;;3.58;;
13981;SDS011;7065;50.880;5.502;2022-10-04T15:50:46;4.47;;;3.63;;
13981;SDS011;7065;50.880;5.502;2022-10-04T16:06:58;4.40;;;3.53;;
13981;SDS011;7065;50.880;5.502;2022-10-04T16:09:59;4.72;;;3.40;;
13981;SDS011;7065;50.880;5.502;2022-10-04T16:13:02;4.00;;;3.15;;
13981;SDS011;7065;50.880;5.502;2022-10-04T16:21:27;5.18;;;4.13;;
13981;SDS011;7065;50.880;5.502;2022-10-04T16:27:04;5.10;;;3.90;;
13981;SDS011;7065;50.880;5.502;2022-10-04T16:29:57;5.78;;;3.55;;
13981;SDS011;7065;50.880;5.502;2022-10-04T16:43:24;4.18;;;3.78;;
13981;SDS011;7065;50.880;5.502;2022-10-04T16:46:08;5.15;;;4.40;;
13981;SDS011;7065;50.880;5.502;2022-10-04T16:51:33;5.75;;;4.00;;
13981;SDS011;7065;50.880;5.502;2022-10-04T17:18:29;5.88;;;4.43;;
13981;SDS011;7065;50.880;5.502;2022-10-04T17:21:30;7.05;;;5.15;;
13981;SDS011;7065;50.880;5.502;2022-10-04T17:27:13;9.02;;;4.97;;
13981;SDS011;7065;50.880;5.502;2022-10-04T17:29:48;7.97;;;4.70;;
13981;SDS011;7065;50.880;5.502;2022-10-04T17:35:50;5.57;;;4.50;;
13981;SDS011;7065;50.880;5.502;2022-10-04T17:44:45;6.00;;;5.00;;
13981;SDS011;7065;50.880;5.502;2022-10-04T17:50:16;6.63;;;5.40;;
13981;SDS011;7065;50.880;5.502;2022-10-04T17:53:10;6.68;;;6.05;;
13981;SDS011;7065;50.880;5.502;2022-10-04T17:56:00;6.57;;;5.63;;
13981;SDS011;7065;50.880;5.502;2022-10-04T17:58:36;6.10;;;5.50;;
13981;SDS011;7065;50.880;5.502;2022-10-04T18:01:15;7.57;;;6.20;;
13981;SDS011;7065;50.880;5.502;2022-10-04T18:04:44;9.83;;;7.17;;
13981;SDS011;7065;50.880;5.502;2022-10-04T18:15:06;9.05;;;7.00;;
13981;SDS011;7065;50.880;5.502;2022-10-04T18:17:50;8.80;;;6.72;;
13981;SDS011;7065;50.880;5.502;2022-10-04T18:20:34;8.50;;;6.60;;
13981;SDS011;7065;50.880;5.502;2022-10-04T18:23:23;8.52;;;7.05;;
13981;SDS011;7065;50.880;5.502;2022-10-04T18:25:56;6.82;;;6.13;;
13981;SDS011;7065;50.880;5.502;2022-10-04T18:28:46;8.25;;;6.40;;
13981;SDS011;7065;50.880;5.502;2022-10-04T18:39:50;9.77;;;7.22;;
13981;SDS011;7065;50.880;5.502;2022-10-04T18:42:18;10.02;;;8.13;;
13981;SDS011;7065;50.880;5.502;2022-10-04T18:44:57;9.13;;;7.95;;
13981;SDS011;7065;50.880;5.502;2022-10-04T18:47:32;12.73;;;8.05;;
13981;SDS011;7065;50.880;5.502;2022-10-04T18:50:12;8.13;;;6.57;;
13981;SDS011;7065;50.880;5.502;2022-10-04T18:52:50;7.57;;;6.80;;
13981;SDS011;7065;50.880;5.502;2022-10-04T19:01:46;11.00;;;7.38;;
13981;SDS011;7065;50.880;5.502;2022-10-04T19:04:32;10.07;;;6.97;;
13981;SDS011;7065;50.880;5.502;2022-10-04T19:07:03;8.60;;;5.93;;
13981;SDS011;7065;50.880;5.502;2022-10-04T19:12:16;8.63;;;6.07;;
13981;SDS011;7065;50.880;5.502;2022-10-04T19:17:22;6.80;;;5.90;;
13981;SDS011;7065;50.880;5.502;2022-10-04T19:22:49;7.97;;;7.00;;
13981;SDS011;7065;50.880;5.502;2022-10-04T19:25:36;10.45;;;7.20;;
13981;SDS011;7065;50.880;5.502;2022-10-04T19:36:06;10.18;;;7.47;;
13981;SDS011;7065;50.880;5.502;2022-10-04T19:38:59;10.70;;;7.47;;
13981;SDS011;7065;50.880;5.502;2022-10-04T19:47:35;9.32;;;7.93;;
13981;SDS011;7065;50.880;5.502;2022-10-04T19:50:14;12.38;;;8.05;;
13981;SDS011;7065;50.880;5.502;2022-10-04T19:52:51;11.70;;;8.82;;
13981;SDS011;7065;50.880;5.502;2022-10-04T19:55:53;13.57;;;8.95;;
13981;SDS011;7065;50.880;5.502;2022-10-04T20:01:10;9.68;;;8.63;;
13981;SDS011;7065;50.880;5.502;2022-10-04T20:03:40;11.57;;;8.25;;
13981;SDS011;7065;50.880;5.502;2022-10-04T20:06:07;12.30;;;8.25;;
13981;SDS011;7065;50.880;5.502;2022-10-04T20:11:46;9.80;;;8.35;;
13981;SDS011;7065;50.880;5.502;2022-10-04T20:19:18;12.57;;;8.38;;
13981;SDS011;7065;50.880;5.502;2022-10-04T20:21:46;9.75;;;8.73;;
13981;SDS011;7065;50.880;5.502;2022-10-04T20:24:16;9.82;;;8.48;;
13981;SDS011;7065;50.880;5.502;2022-10-04T20:26:51;10.32;;;8.82;;
13981;SDS011;7065;50.880;5.502;2022-10-04T20:32:02;12.88;;;9.27;;
13981;SDS011;7065;50.880;5.502;2022-10-04T20:34:33;8.52;;;7.22;;
13981;SDS011;7065;50.880;5.502;2022-10-04T20:37:02;10.80;;;8.63;;
13981;SDS011;7065;50.880;5.502;2022-10-04T20:47:35;10.25;;;8.20;;
13981;SDS011;7065;50.880;5.502;2022-10-04T20:50:13;10.15;;;8.73;;
13981;SDS011;7065;50.880;5.502;2022-10-04T20:52:46;10.10;;;9.10;;
13981;SDS011;7065;50.880;5.502;2022-10-04T20:55:21;11.32;;;8.98;;
13981;SDS011;7065;50.880;5.502;2022-10-04T20:57:53;12.43;;;9.18;;
13981;SDS011;7065;50.880;5.502;2022-10-04T21:00:21;11.65;;;8.30;;
13981;SDS011;7065;50.880;5.502;2022-10-04T21:02:49;10.50;;;8.52;;
13981;SDS011;7065;50.880;5.502;2022-10-04T21:05:41;9.57;;;8.68;;
13981;SDS011;7065;50.880;5.502;2022-10-04T21:08:15;11.63;;;9.15;;
13981;SDS011;7065;50.880;5.502;2022-10-04T21:16:08;10.30;;;8.65;;
13981;SDS011;7065;50.880;5.502;2022-10-04T21:18:34;10.57;;;8.43;;
13981;SDS011;7065;50.880;5.502;2022-10-04T21:21:00;10.70;;;8.52;;
13981;SDS011;7065;50.880;5.502;2022-10-04T21:23:30;12.45;;;9.50;;
13981;SDS011;7065;50.880;5.502;2022-10-04T21:26:16;12.98;;;9.02;;
13981;SDS011;7065;50.880;5.502;2022-10-04T21:28:44;10.68;;;9.13;;
13981;SDS011;7065;50.880;5.502;2022-10-04T21:31:11;12.30;;;9.40;;
13981;SDS011;7065;50.880;5.502;2022-10-04T21:33:37;11.02;;;9.38;;
13981;SDS011;7065;50.880;5.502;2022-10-04T21:36:04;10.88;;;9.43;;
13981;SDS011;7065;50.880;5.502;2022-10-04T21:38:30;10.27;;;9.13;;
13981;SDS011;7065;50.880;5.502;2022-10-04T21:40:55;11.52;;;9.27;;
13981;SDS011;7065;50.880;5.502;2022-10-04T21:43:22;11.40;;;9.75;;
13981;SDS011;7065;50.880;5.502;2022-10-04T21:45:49;9.50;;;8.35;;
13981;SDS011;7065;50.880;5.502;2022-10-04T21:48:14;9.70;;;7.93;;
13981;SDS011;7065;50.880;5.502;2022-10-04T21:50:41;12.07;;;9.00;;
13981;SDS011;7065;50.880;5.502;2022-10-04T21:53:07;9.73;;;8.73;;
13981;SDS011;7065;50.880;5.502;2022-10-04T21:55:33;10.80;;;8.82;;
13981;SDS011;7065;50.880;5.502;2022-10-04T21:57:59;10.70;;;8.85;;
13981;SDS011;7065;50.880;5.502;2022-10-04T22:00:24;10.15;;;9.13;;
13981;SDS011;7065;50.880;5.502;2022-10-04T22:02:50;10.80;;;9.00;;
13981;SDS011;7065;50.880;5.502;2022-10-04T22:05:16;10.60;;;9.10;;
13981;SDS011;7065;50.880;5.502;2022-10-04T22:07:42;11.40;;;8.88;;
13981;SDS011;7065;50.880;5.502;2022-10-04T22:10:07;11.05;;;9.43;;
13981;SDS011;7065;50.880;5.502;2022-10-04T22:12:33;10.27;;;9.27;;
13981;SDS011;7065;50.880;5.502;2022-10-04T22:14:59;11.57;;;9.32;;
13981;SDS011;7065;50.880;5.502;2022-10-04T22:17:24;10.10;;;8.98;;
13981;SDS011;7065;50.880;5.502;2022-10-04T22:19:50;9.88;;;8.70;;
13981;SDS011;7065;50.880;5.502;2022-10-04T22:22:17;10.23;;;8.10;;
13981;SDS011;7065;50.880;5.502;2022-10-04T22:24:44;10.38;;;8.70;;
13981;SDS011;7065;50.880;5.502;2022-10-04T22:27:16;11.13;;;9.40;;
13981;SDS011;7065;50.880;5.502;2022-10-04T22:29:43;12.98;;;9.27;;
13981;SDS011;7065;50.880;5.502;2022-10-04T22:32:10;9.55;;;8.55;;
13981;SDS011;7065;50.880;5.502;2022-10-04T22:34:42;9.35;;;8.35;;
13981;SDS011;7065;50.880;5.502;2022-10-04T22:37:08;10.52;;;8.65;;
13981;SDS011;7065;50.880;5.502;2022-10-04T22:39:36;11.27;;;9.10;;
13981;SDS011;7065;50.880;5.502;2022-10-04T22:42:01;12.38;;;9.85;;
13981;SDS011;7065;50.880;5.502;2022-10-04T22:44:29;11.52;;;9.40;;
13981;SDS011;7065;50.880;5.502;2022-10-04T22:47:01;11.05;;;9.75;;
13981;SDS011;7065;50.880;5.502;2022-10-04T22:49:31;12.60;;;9.55;;
13981;SDS011;7065;50.880;5.502;2022-10-04T22:52:09;12.63;;;10.75;;
13981;SDS011;7065;50.880;5.502;2022-10-04T22:54:43;13.25;;;10.50;;
13981;SDS011;7065;50.880;5.502;2022-10-04T22:57:11;14.43;;;10.63;;
13981;SDS011;7065;50.880;5.502;2022-10-04T22:59:40;12.82;;;10.40;;
13981;SDS011;7065;50.880;5.502;2022-10-04T23:02:15;15.93;;;10.88;;
13981;SDS011;7065;50.880;5.502;2022-10-04T23:04:54;12.68;;;10.48;;
13981;SDS011;7065;50.880;5.502;2022-10-04T23:07:22;12.93;;;11.00;;
13981;SDS011;7065;50.880;5.502;2022-10-04T23:09:48;13.70;;;10.27;;
13981;SDS011;7065;50.880;5.502;2022-10-04T23:12:14;14.50;;;11.13;;
13981;SDS011;7065;50.880;5.502;2022-10-04T23:14:40;15.55;;;10.73;;
13981;SDS011;7065;50.880;5.502;2022-10-04T23:19:57;13.20;;;11.25;;
13981;SDS011;7065;50.880;5.502;2022-10-04T23:22:29;14.88;;;11.48;;
13981;SDS011;7065;50.880;5.502;2022-10-04T23:24:54;12.20;;;10.85;;
13981;SDS011;7065;50.880;5.502;2022-10-04T23:27:21;11.35;;;10.25;;
13981;SDS011;7065;50.880;5.502;2022-10-04T23:29:48;13.80;;;11.07;;
13981;SDS011;7065;50.880;5.502;2022-10-04T23:32:35;14.70;;;10.30;;
13981;SDS011;7065;50.880;5.502;2022-10-04T23:35:02;12.13;;;10.82;;
13981;SDS011;7065;50.880;5.502;2022-10-04T23:37:29;12.38;;;10.70;;
13981;SDS011;7065;50.880;5.502;2022-10-04T23:39:56;12.23;;;10.02;;
13981;SDS011;7065;50.880;5.502;2022-10-04T23:42:26;12.40;;;10.30;;
13981;SDS011;7065;50.880;5.502;2022-10-04T23:44:56;12.55;;;10.98;;
13981;SDS011;7065;50.880;5.502;2022-10-04T23:47:34;12.50;;;10.10;;
13981;SDS011;7065;50.880;5.502;2022-10-04T23:50:00;12.45;;;10.10;;
13981;SDS011;7065;50.880;5.502;2022-10-04T23:52:38;11.00;;;9.90;;
13981;SDS011;7065;50.880;5.502;2022-10-04T23:55:21;12.00;;;10.43;;
13981;SDS011;7065;50.880;5.502;2022-10-04T23:57:49;13.68;;;10.55;;
